Turlock, CA (95380)

11:53 AM PDT on August 21, 2014 (GMT -0700)
VFWS01 | Change Station
CLOSE
Current Station
Personal Weather Station
Location: Denair, CA
Elevation: 197 ft
Nearby Weather Stations

Elev 197 ft 37.51 °N, 120.71 °W | Updated 4 seconds ago

Clear
Clear
76.3 °F
Feels Like 78 °F
N
0.9
Wind Variable Wind from NNE
Gusts 3.0 mph

Today
High -- | Low -- °F
--% Chance of Precip.
Yesterday
High -- | Low -- °F
Precip. -- in
6:24 AM 7:47 PM
Waning Crescent, 13% visible
Pressure 29.94 in
Visibility 10.0 miles
Clouds Clear
Heat Index 78 °F
Dew Point 60 °F
Humidity 57%
Rainfall 0.00 in
Snow Depth Not available.
UV 8 out of 12
Pollen 8.30 out of 12
PM2.5 Good
Flu Activity Not available.
METAR KMOD 211753Z VRB05KT 10SM CLR 23/14 A2994 RMK AO2 SLP139 T02330139 10233 20156 50004

More Conditions Fewer Conditions

Pressure 29.94 in
Visibility 10.0 miles
Clouds Clear
Heat Index 78 °F
Dew Point 60 °F
Humidity 57%
Rainfall 0.00 in
Snow Depth Not available.
UV 8 out of 12
Pollen 8.30 out of 12
PM2.5 Good
Flu Activity Not available.
METAR KMOD 211753Z VRB05KT 10SM CLR 23/14 A2994 RMK AO2 SLP139 T02330139 10233 20156 50004

More Conditions Fewer Conditions

10-Day Weather Forecast

Almanac

Astronomy

Aug. 21, 2014 Rise Set
Actual Time 6:24 AM PDT 7:47 PM PDT
Civil Twilight 5:57 AM PDT 8:15 PM PDT
Nautical Twilight 5:24 AM PDT 8:47 PM PDT
Astronomical Twilight 4:49 AM PDT 9:22 PM PDT
Moon 3:01 AM PDT 5:18 PM PDT
Length of Visible Light 14h 17m
Length of Day
13h 23m
Tomorrow will be 2m 12s shorter.
Waning Crescent, 13% of the Moon is Illuminated
Today
Waning Crescent
Aug 25
New
Sep 2
First Quarter
Sep 8
Full
Sep 15
Last Quarter

Today's Extremes

State Highs State Lows

Community

WunderPhotos

Upload Photos

1,745,996 photos uploaded!

WunderBlogs® & News

Nearby

Air Quality

  Air Quality AQ Index Pollutant
Yesterday Good
OZONE
Yesterday Good
PM2.5
Current Good
PM2.5
Thursday Moderate
OZONE
Friday Moderate
OZONE
Saturday Moderate
OZONE
Sunday Moderate
OZONE
Monday Moderate
OZONE

Snow Depth

Station Depth Elevation
Echo Peak 0 in 7800 ft
Fallen Leaf 0 in 6300 ft
CSS Lab 0 in 6900 ft
Adin Mountain 0 in 6200 ft
Cedar Pass 0 in 7100 ft

Earthquake Activity

City Distance Mag. Time & Date
Berkeley, California 79 miles 2.6 7:41 PM PDT
2014-08-16
King City, California 82 miles 2.7 10:26 PM PDT
2014-08-15
Kettleman City, California 110 miles 2.9 11:32 PM PDT
2014-08-14
King City, California 82 miles 2.9 8:01 PM PDT
2014-08-14
Minimum magnitude displayed is 2.5.

Coastal Water Temperatures

Place Temperature
No Stations Reporting

Nearby Weather Stations